sensor_id;sensor_type;location;lat;lon;timestamp;P1;durP1;ratioP1;P2;durP2;ratioP2
9722;SDS011;4900;49.306;8.500;2023-07-08T00:00:21;8.63;;;5.80;;
9722;SDS011;4900;49.306;8.500;2023-07-08T00:02:47;8.43;;;5.75;;
9722;SDS011;4900;49.306;8.500;2023-07-08T00:05:13;7.72;;;6.03;;
9722;SDS011;4900;49.306;8.500;2023-07-08T00:07:41;9.43;;;6.43;;
9722;SDS011;4900;49.306;8.500;2023-07-08T00:10:14;9.60;;;6.13;;
9722;SDS011;4900;49.306;8.500;2023-07-08T00:12:41;7.57;;;5.97;;
9722;SDS011;4900;49.306;8.500;2023-07-08T00:15:08;8.27;;;6.10;;
9722;SDS011;4900;49.306;8.500;2023-07-08T00:17:33;8.15;;;6.15;;
9722;SDS011;4900;49.306;8.500;2023-07-08T00:19:59;8.52;;;5.95;;
9722;SDS011;4900;49.306;8.500;2023-07-08T00:22:24;8.38;;;6.13;;
9722;SDS011;4900;49.306;8.500;2023-07-08T00:24:50;7.90;;;6.07;;
9722;SDS011;4900;49.306;8.500;2023-07-08T00:27:16;7.32;;;5.80;;
9722;SDS011;4900;49.306;8.500;2023-07-08T00:29:41;8.00;;;6.15;;
9722;SDS011;4900;49.306;8.500;2023-07-08T00:32:09;7.95;;;5.85;;
9722;SDS011;4900;49.306;8.500;2023-07-08T00:34:38;8.18;;;6.60;;
9722;SDS011;4900;49.306;8.500;2023-07-08T00:37:04;8.40;;;6.07;;
9722;SDS011;4900;49.306;8.500;2023-07-08T00:39:31;10.30;;;5.55;;
9722;SDS011;4900;49.306;8.500;2023-07-08T00:41:57;12.05;;;6.57;;
9722;SDS011;4900;49.306;8.500;2023-07-08T00:44:25;8.40;;;5.95;;
9722;SDS011;4900;49.306;8.500;2023-07-08T00:46:55;8.18;;;5.70;;
9722;SDS011;4900;49.306;8.500;2023-07-08T00:52:19;8.00;;;6.03;;
9722;SDS011;4900;49.306;8.500;2023-07-08T00:54:52;8.15;;;6.20;;
9722;SDS011;4900;49.306;8.500;2023-07-08T00:57:27;8.38;;;5.78;;
9722;SDS011;4900;49.306;8.500;2023-07-08T01:00:02;7.97;;;5.70;;
9722;SDS011;4900;49.306;8.500;2023-07-08T01:02:29;8.63;;;5.80;;
9722;SDS011;4900;49.306;8.500;2023-07-08T01:05:04;7.35;;;5.63;;
9722;SDS011;4900;49.306;8.500;2023-07-08T01:07:35;8.00;;;5.60;;
9722;SDS011;4900;49.306;8.500;2023-07-08T01:10:03;7.75;;;5.57;;
9722;SDS011;4900;49.306;8.500;2023-07-08T01:12:37;7.10;;;5.35;;
9722;SDS011;4900;49.306;8.500;2023-07-08T01:15:07;7.75;;;5.95;;
9722;SDS011;4900;49.306;8.500;2023-07-08T01:17:33;8.52;;;6.10;;
9722;SDS011;4900;49.306;8.500;2023-07-08T01:19:59;7.65;;;5.93;;
9722;SDS011;4900;49.306;8.500;2023-07-08T01:22:29;7.07;;;5.60;;
9722;SDS011;4900;49.306;8.500;2023-07-08T01:24:57;7.82;;;5.78;;
9722;SDS011;4900;49.306;8.500;2023-07-08T01:27:28;7.35;;;5.45;;
9722;SDS011;4900;49.306;8.500;2023-07-08T01:29:55;7.65;;;5.97;;
9722;SDS011;4900;49.306;8.500;2023-07-08T01:32:21;7.63;;;5.90;;
9722;SDS011;4900;49.306;8.500;2023-07-08T01:34:46;7.53;;;5.60;;
9722;SDS011;4900;49.306;8.500;2023-07-08T01:37:34;7.40;;;5.65;;
9722;SDS011;4900;49.306;8.500;2023-07-08T01:42:46;8.25;;;6.15;;
9722;SDS011;4900;49.306;8.500;2023-07-08T01:45:13;7.32;;;5.70;;
9722;SDS011;4900;49.306;8.500;2023-07-08T01:47:41;7.03;;;5.70;;
9722;SDS011;4900;49.306;8.500;2023-07-08T01:50:08;7.80;;;5.78;;
9722;SDS011;4900;49.306;8.500;2023-07-08T01:52:35;8.10;;;5.63;;
9722;SDS011;4900;49.306;8.500;2023-07-08T01:55:01;8.02;;;5.60;;
9722;SDS011;4900;49.306;8.500;2023-07-08T01:57:26;9.35;;;5.90;;
9722;SDS011;4900;49.306;8.500;2023-07-08T01:59:52;11.43;;;6.47;;
9722;SDS011;4900;49.306;8.500;2023-07-08T02:02:17;8.63;;;5.95;;
9722;SDS011;4900;49.306;8.500;2023-07-08T02:04:43;8.63;;;6.60;;
9722;SDS011;4900;49.306;8.500;2023-07-08T02:07:08;8.13;;;5.78;;
9722;SDS011;4900;49.306;8.500;2023-07-08T02:09:33;7.97;;;5.95;;
9722;SDS011;4900;49.306;8.500;2023-07-08T02:11:59;9.82;;;5.82;;
9722;SDS011;4900;49.306;8.500;2023-07-08T02:14:24;8.18;;;5.65;;
9722;SDS011;4900;49.306;8.500;2023-07-08T02:16:51;8.15;;;5.85;;
9722;SDS011;4900;49.306;8.500;2023-07-08T02:19:17;9.45;;;6.00;;
9722;SDS011;4900;49.306;8.500;2023-07-08T02:21:42;8.35;;;5.65;;
9722;SDS011;4900;49.306;8.500;2023-07-08T02:24:08;8.50;;;5.60;;
9722;SDS011;4900;49.306;8.500;2023-07-08T02:26:33;7.53;;;5.80;;
9722;SDS011;4900;49.306;8.500;2023-07-08T02:28:59;8.02;;;5.45;;
9722;SDS011;4900;49.306;8.500;2023-07-08T02:31:25;10.50;;;6.40;;
9722;SDS011;4900;49.306;8.500;2023-07-08T02:33:51;7.60;;;5.80;;
9722;SDS011;4900;49.306;8.500;2023-07-08T02:36:17;8.00;;;5.85;;
9722;SDS011;4900;49.306;8.500;2023-07-08T02:38:43;8.15;;;6.10;;
9722;SDS011;4900;49.306;8.500;2023-07-08T02:41:08;7.95;;;5.68;;
9722;SDS011;4900;49.306;8.500;2023-07-08T02:43:34;7.72;;;5.78;;
9722;SDS011;4900;49.306;8.500;2023-07-08T02:45:59;8.23;;;5.65;;
9722;SDS011;4900;49.306;8.500;2023-07-08T02:48:25;8.02;;;5.90;;
9722;SDS011;4900;49.306;8.500;2023-07-08T02:50:50;9.15;;;5.47;;
9722;SDS011;4900;49.306;8.500;2023-07-08T02:53:16;9.40;;;5.82;;
9722;SDS011;4900;49.306;8.500;2023-07-08T02:55:41;7.90;;;5.82;;
9722;SDS011;4900;49.306;8.500;2023-07-08T02:58:08;7.80;;;5.85;;
9722;SDS011;4900;49.306;8.500;2023-07-08T03:00:34;7.50;;;5.57;;
9722;SDS011;4900;49.306;8.500;2023-07-08T03:03:02;8.57;;;5.53;;
9722;SDS011;4900;49.306;8.500;2023-07-08T03:05:29;7.82;;;6.00;;
9722;SDS011;4900;49.306;8.500;2023-07-08T03:07:55;8.75;;;5.30;;
9722;SDS011;4900;49.306;8.500;2023-07-08T03:10:21;8.63;;;5.53;;
9722;SDS011;4900;49.306;8.500;2023-07-08T03:12:47;8.25;;;5.47;;
9722;SDS011;4900;49.306;8.500;2023-07-08T03:15:12;8.05;;;5.60;;
9722;SDS011;4900;49.306;8.500;2023-07-08T03:17:38;7.88;;;5.93;;
9722;SDS011;4900;49.306;8.500;2023-07-08T03:20:03;8.60;;;5.20;;
9722;SDS011;4900;49.306;8.500;2023-07-08T03:22:30;7.60;;;5.57;;
9722;SDS011;4900;49.306;8.500;2023-07-08T03:24:56;11.65;;;5.57;;
9722;SDS011;4900;49.306;8.500;2023-07-08T03:27:23;8.98;;;5.63;;
9722;SDS011;4900;49.306;8.500;2023-07-08T03:29:48;7.70;;;5.22;;
9722;SDS011;4900;49.306;8.500;2023-07-08T03:32:13;8.75;;;5.47;;
9722;SDS011;4900;49.306;8.500;2023-07-08T03:34:39;6.97;;;5.15;;
9722;SDS011;4900;49.306;8.500;2023-07-08T03:37:04;8.02;;;5.75;;
9722;SDS011;4900;49.306;8.500;2023-07-08T03:39:30;6.65;;;5.22;;
9722;SDS011;4900;49.306;8.500;2023-07-08T03:41:57;7.15;;;5.32;;
9722;SDS011;4900;49.306;8.500;2023-07-08T03:44:23;8.15;;;5.22;;
9722;SDS011;4900;49.306;8.500;2023-07-08T03:46:48;8.40;;;5.80;;
9722;SDS011;4900;49.306;8.500;2023-07-08T03:49:15;9.85;;;5.80;;
9722;SDS011;4900;49.306;8.500;2023-07-08T03:51:42;7.30;;;5.63;;
9722;SDS011;4900;49.306;8.500;2023-07-08T03:54:08;6.80;;;5.10;;
9722;SDS011;4900;49.306;8.500;2023-07-08T03:56:36;7.32;;;5.40;;
9722;SDS011;4900;49.306;8.500;2023-07-08T03:59:02;7.38;;;5.30;;
9722;SDS011;4900;49.306;8.500;2023-07-08T04:01:27;7.72;;;5.50;;
9722;SDS011;4900;49.306;8.500;2023-07-08T04:03:53;7.25;;;5.80;;
9722;SDS011;4900;49.306;8.500;2023-07-08T04:06:20;7.10;;;5.38;;
9722;SDS011;4900;49.306;8.500;2023-07-08T04:08:46;7.68;;;5.82;;
9722;SDS011;4900;49.306;8.500;2023-07-08T04:11:12;9.10;;;5.97;;
9722;SDS011;4900;49.306;8.500;2023-07-08T04:13:39;8.45;;;5.50;;
9722;SDS011;4900;49.306;8.500;2023-07-08T04:16:05;8.60;;;5.47;;
9722;SDS011;4900;49.306;8.500;2023-07-08T04:18:32;8.40;;;5.20;;
9722;SDS011;4900;49.306;8.500;2023-07-08T04:20:57;9.98;;;5.28;;
9722;SDS011;4900;49.306;8.500;2023-07-08T04:23:24;6.75;;;5.28;;
9722;SDS011;4900;49.306;8.500;2023-07-08T04:25:50;7.95;;;5.47;;
9722;SDS011;4900;49.306;8.500;2023-07-08T04:28:20;7.72;;;5.72;;
9722;SDS011;4900;49.306;8.500;2023-07-08T04:30:46;8.77;;;5.40;;
9722;SDS011;4900;49.306;8.500;2023-07-08T04:33:13;7.53;;;5.38;;
9722;SDS011;4900;49.306;8.500;2023-07-08T04:35:40;8.50;;;5.20;;
9722;SDS011;4900;49.306;8.500;2023-07-08T04:38:14;7.43;;;5.28;;
9722;SDS011;4900;49.306;8.500;2023-07-08T04:40:43;6.85;;;5.25;;
9722;SDS011;4900;49.306;8.500;2023-07-08T04:43:08;6.25;;;4.70;;
9722;SDS011;4900;49.306;8.500;2023-07-08T04:45:38;7.45;;;5.20;;
9722;SDS011;4900;49.306;8.500;2023-07-08T04:48:04;8.68;;;5.53;;
9722;SDS011;4900;49.306;8.500;2023-07-08T04:50:44;6.70;;;4.80;;
9722;SDS011;4900;49.306;8.500;2023-07-08T04:53:13;8.48;;;5.13;;
9722;SDS011;4900;49.306;8.500;2023-07-08T04:55:43;6.88;;;5.28;;
9722;SDS011;4900;49.306;8.500;2023-07-08T04:58:11;7.97;;;5.53;;
9722;SDS011;4900;49.306;8.500;2023-07-08T05:00:37;6.22;;;4.95;;
9722;SDS011;4900;49.306;8.500;2023-07-08T05:03:02;6.65;;;5.07;;
9722;SDS011;4900;49.306;8.500;2023-07-08T05:05:28;8.63;;;5.35;;
9722;SDS011;4900;49.306;8.500;2023-07-08T05:07:53;9.82;;;5.30;;
9722;SDS011;4900;49.306;8.500;2023-07-08T05:10:19;6.72;;;5.13;;
9722;SDS011;4900;49.306;8.500;2023-07-08T05:12:45;7.18;;;5.63;;
9722;SDS011;4900;49.306;8.500;2023-07-08T05:15:11;9.85;;;5.68;;
9722;SDS011;4900;49.306;8.500;2023-07-08T05:17:38;7.38;;;5.15;;
9722;SDS011;4900;49.306;8.500;2023-07-08T05:20:05;8.23;;;5.60;;
9722;SDS011;4900;49.306;8.500;2023-07-08T05:22:32;7.40;;;5.10;;
9722;SDS011;4900;49.306;8.500;2023-07-08T05:24:58;6.88;;;5.47;;
9722;SDS011;4900;49.306;8.500;2023-07-08T05:27:24;7.00;;;5.10;;
9722;SDS011;4900;49.306;8.500;2023-07-08T05:29:50;8.18;;;5.28;;
9722;SDS011;4900;49.306;8.500;2023-07-08T05:32:16;5.82;;;4.93;;
9722;SDS011;4900;49.306;8.500;2023-07-08T05:34:42;6.47;;;5.28;;
9722;SDS011;4900;49.306;8.500;2023-07-08T05:37:09;6.32;;;5.03;;
9722;SDS011;4900;49.306;8.500;2023-07-08T05:39:35;8.15;;;5.65;;
9722;SDS011;4900;49.306;8.500;2023-07-08T05:42:01;7.55;;;5.10;;
9722;SDS011;4900;49.306;8.500;2023-07-08T05:44:27;6.13;;;5.10;;
9722;SDS011;4900;49.306;8.500;2023-07-08T05:46:52;6.78;;;5.28;;
9722;SDS011;4900;49.306;8.500;2023-07-08T05:49:18;6.90;;;5.63;;
9722;SDS011;4900;49.306;8.500;2023-07-08T05:51:43;6.72;;;5.32;;
9722;SDS011;4900;49.306;8.500;2023-07-08T05:54:09;10.02;;;5.68;;
9722;SDS011;4900;49.306;8.500;2023-07-08T05:56:35;7.78;;;5.82;;
9722;SDS011;4900;49.306;8.500;2023-07-08T05:59:01;7.47;;;5.68;;
9722;SDS011;4900;49.306;8.500;2023-07-08T06:01:27;6.25;;;5.28;;
9722;SDS011;4900;49.306;8.500;2023-07-08T06:03:52;7.47;;;5.72;;
9722;SDS011;4900;49.306;8.500;2023-07-08T06:06:18;8.00;;;5.80;;
9722;SDS011;4900;49.306;8.500;2023-07-08T06:08:43;6.25;;;5.20;;
9722;SDS011;4900;49.306;8.500;2023-07-08T06:11:09;7.93;;;5.68;;
9722;SDS011;4900;49.306;8.500;2023-07-08T06:13:34;8.35;;;5.68;;
9722;SDS011;4900;49.306;8.500;2023-07-08T06:16:00;8.20;;;5.90;;
9722;SDS011;4900;49.306;8.500;2023-07-08T06:18:25;9.55;;;6.13;;
9722;SDS011;4900;49.306;8.500;2023-07-08T06:20:51;8.95;;;5.75;;
9722;SDS011;4900;49.306;8.500;2023-07-08T06:23:20;9.07;;;5.40;;
9722;SDS011;4900;49.306;8.500;2023-07-08T06:25:46;7.07;;;5.30;;
9722;SDS011;4900;49.306;8.500;2023-07-08T06:28:12;7.03;;;5.63;;
9722;SDS011;4900;49.306;8.500;2023-07-08T06:30:37;7.97;;;5.72;;
9722;SDS011;4900;49.306;8.500;2023-07-08T06:33:03;7.43;;;5.55;;
9722;SDS011;4900;49.306;8.500;2023-07-08T06:35:28;8.10;;;5.68;;
9722;SDS011;4900;49.306;8.500;2023-07-08T06:37:54;8.73;;;5.53;;
9722;SDS011;4900;49.306;8.500;2023-07-08T06:40:19;7.40;;;5.72;;
9722;SDS011;4900;49.306;8.500;2023-07-08T06:42:45;6.13;;;4.93;;
9722;SDS011;4900;49.306;8.500;2023-07-08T06:45:11;7.65;;;5.32;;
9722;SDS011;4900;49.306;8.500;2023-07-08T06:47:36;7.32;;;5.47;;
9722;SDS011;4900;49.306;8.500;2023-07-08T06:50:02;7.45;;;5.68;;
9722;SDS011;4900;49.306;8.500;2023-07-08T06:52:27;7.10;;;5.40;;
9722;SDS011;4900;49.306;8.500;2023-07-08T06:54:59;7.43;;;5.35;;
9722;SDS011;4900;49.306;8.500;2023-07-08T06:57:29;7.18;;;5.63;;
9722;SDS011;4900;49.306;8.500;2023-07-08T06:59:55;8.30;;;6.05;;
9722;SDS011;4900;49.306;8.500;2023-07-08T07:02:20;7.30;;;5.68;;
9722;SDS011;4900;49.306;8.500;2023-07-08T07:04:46;7.13;;;5.65;;
9722;SDS011;4900;49.306;8.500;2023-07-08T07:07:11;7.60;;;5.85;;
9722;SDS011;4900;49.306;8.500;2023-07-08T07:09:37;6.65;;;5.53;;
9722;SDS011;4900;49.306;8.500;2023-07-08T07:12:02;7.05;;;5.70;;
9722;SDS011;4900;49.306;8.500;2023-07-08T07:14:30;7.43;;;5.55;;
9722;SDS011;4900;49.306;8.500;2023-07-08T07:16:55;8.80;;;6.03;;
9722;SDS011;4900;49.306;8.500;2023-07-08T07:19:21;6.50;;;5.68;;
9722;SDS011;4900;49.306;8.500;2023-07-08T07:21:46;7.63;;;5.72;;
9722;SDS011;4900;49.306;8.500;2023-07-08T07:24:12;5.75;;;4.38;;
9722;SDS011;4900;49.306;8.500;2023-07-08T07:26:37;4.55;;;3.80;;
9722;SDS011;4900;49.306;8.500;2023-07-08T07:29:03;5.13;;;3.92;;
9722;SDS011;4900;49.306;8.500;2023-07-08T07:31:28;6.07;;;3.90;;
9722;SDS011;4900;49.306;8.500;2023-07-08T07:33:54;8.35;;;4.07;;
9722;SDS011;4900;49.306;8.500;2023-07-08T07:36:21;4.78;;;3.92;;
9722;SDS011;4900;49.306;8.500;2023-07-08T07:38:46;4.78;;;3.83;;
9722;SDS011;4900;49.306;8.500;2023-07-08T07:41:12;9.10;;;5.03;;
9722;SDS011;4900;49.306;8.500;2023-07-08T07:43:38;8.13;;;4.00;;
9722;SDS011;4900;49.306;8.500;2023-07-08T07:46:03;5.78;;;3.95;;
9722;SDS011;4900;49.306;8.500;2023-07-08T07:48:30;5.75;;;3.70;;
9722;SDS011;4900;49.306;8.500;2023-07-08T07:50:57;5.88;;;3.53;;
9722;SDS011;4900;49.306;8.500;2023-07-08T07:53:22;4.88;;;3.00;;
9722;SDS011;4900;49.306;8.500;2023-07-08T07:55:55;4.63;;;3.20;;
9722;SDS011;4900;49.306;8.500;2023-07-08T07:58:21;4.50;;;3.40;;
9722;SDS011;4900;49.306;8.500;2023-07-08T08:00:47;3.83;;;3.05;;
9722;SDS011;4900;49.306;8.500;2023-07-08T08:03:12;7.05;;;2.97;;
9722;SDS011;4900;49.306;8.500;2023-07-08T08:05:37;4.72;;;2.92;;
9722;SDS011;4900;49.306;8.500;2023-07-08T08:08:03;4.68;;;3.08;;
9722;SDS011;4900;49.306;8.500;2023-07-08T08:10:29;3.80;;;2.88;;
9722;SDS011;4900;49.306;8.500;2023-07-08T08:12:56;4.93;;;3.35;;
9722;SDS011;4900;49.306;8.500;2023-07-08T08:15:21;5.30;;;3.10;;
9722;SDS011;4900;49.306;8.500;2023-07-08T08:17:47;3.40;;;2.63;;
9722;SDS011;4900;49.306;8.500;2023-07-08T08:20:14;4.50;;;2.60;;
9722;SDS011;4900;49.306;8.500;2023-07-08T08:22:40;4.88;;;3.08;;
9722;SDS011;4900;49.306;8.500;2023-07-08T08:25:05;4.47;;;2.75;;
9722;SDS011;4900;49.306;8.500;2023-07-08T08:27:31;5.95;;;2.97;;
9722;SDS011;4900;49.306;8.500;2023-07-08T08:29:57;4.43;;;2.70;;
9722;SDS011;4900;49.306;8.500;2023-07-08T08:32:22;3.60;;;2.90;;
9722;SDS011;4900;49.306;8.500;2023-07-08T08:34:48;3.47;;;2.70;;
9722;SDS011;4900;49.306;8.500;2023-07-08T08:37:13;6.68;;;3.65;;
9722;SDS011;4900;49.306;8.500;2023-07-08T08:39:39;3.47;;;3.17;;
9722;SDS011;4900;49.306;8.500;2023-07-08T08:42:08;4.00;;;3.40;;
9722;SDS011;4900;49.306;8.500;2023-07-08T08:44:48;5.45;;;3.25;;
9722;SDS011;4900;49.306;8.500;2023-07-08T08:49:47;3.72;;;3.17;;
9722;SDS011;4900;49.306;8.500;2023-07-08T08:52:21;4.43;;;3.50;;
9722;SDS011;4900;49.306;8.500;2023-07-08T08:54:46;5.13;;;3.40;;
9722;SDS011;4900;49.306;8.500;2023-07-08T09:00:07;5.75;;;3.35;;
9722;SDS011;4900;49.306;8.500;2023-07-08T09:02:37;4.82;;;3.08;;
9722;SDS011;4900;49.306;8.500;2023-07-08T09:05:06;4.82;;;3.63;;
9722;SDS011;4900;49.306;8.500;2023-07-08T09:07:36;4.28;;;3.33;;
9722;SDS011;4900;49.306;8.500;2023-07-08T09:13:24;5.70;;;3.00;;
9722;SDS011;4900;49.306;8.500;2023-07-08T09:16:06;4.10;;;3.00;;
9722;SDS011;4900;49.306;8.500;2023-07-08T09:21:26;4.50;;;3.28;;
9722;SDS011;4900;49.306;8.500;2023-07-08T09:23:59;3.53;;;2.95;;
9722;SDS011;4900;49.306;8.500;2023-07-08T09:26:28;4.50;;;2.88;;
9722;SDS011;4900;49.306;8.500;2023-07-08T09:28:56;4.40;;;2.72;;
9722;SDS011;4900;49.306;8.500;2023-07-08T09:31:24;5.00;;;2.80;;
9722;SDS011;4900;49.306;8.500;2023-07-08T09:33:52;4.78;;;3.30;;
9722;SDS011;4900;49.306;8.500;2023-07-08T09:36:28;6.32;;;3.30;;
9722;SDS011;4900;49.306;8.500;2023-07-08T09:38:53;7.40;;;3.80;;
9722;SDS011;4900;49.306;8.500;2023-07-08T09:41:40;4.15;;;3.00;;
9722;SDS011;4900;49.306;8.500;2023-07-08T09:44:21;4.82;;;3.58;;
9722;SDS011;4900;49.306;8.500;2023-07-08T09:46:51;4.97;;;3.65;;
9722;SDS011;4900;49.306;8.500;2023-07-08T09:51:48;5.45;;;3.38;;
9722;SDS011;4900;49.306;8.500;2023-07-08T09:54:16;4.63;;;3.38;;
9722;SDS011;4900;49.306;8.500;2023-07-08T09:56:43;4.13;;;3.10;;
9722;SDS011;4900;49.306;8.500;2023-07-08T09:59:13;3.83;;;3.05;;
9722;SDS011;4900;49.306;8.500;2023-07-08T10:01:40;4.80;;;3.45;;
9722;SDS011;4900;49.306;8.500;2023-07-08T10:04:07;3.95;;;3.10;;
9722;SDS011;4900;49.306;8.500;2023-07-08T10:06:33;4.28;;;3.35;;
9722;SDS011;4900;49.306;8.500;2023-07-08T10:09:02;3.55;;;3.20;;
9722;SDS011;4900;49.306;8.500;2023-07-08T10:11:39;3.55;;;3.25;;
9722;SDS011;4900;49.306;8.500;2023-07-08T10:14:20;4.30;;;3.28;;
9722;SDS011;4900;49.306;8.500;2023-07-08T10:16:50;3.47;;;3.13;;
9722;SDS011;4900;49.306;8.500;2023-07-08T10:19:17;3.72;;;3.22;;
9722;SDS011;4900;49.306;8.500;2023-07-08T10:25:03;4.78;;;3.78;;
9722;SDS011;4900;49.306;8.500;2023-07-08T10:27:46;5.53;;;3.80;;
9722;SDS011;4900;49.306;8.500;2023-07-08T10:30:34;3.78;;;3.30;;
9722;SDS011;4900;49.306;8.500;2023-07-08T10:35:58;4.57;;;3.42;;
9722;SDS011;4900;49.306;8.500;2023-07-08T10:38:50;3.53;;;2.95;;
9722;SDS011;4900;49.306;8.500;2023-07-08T10:41:47;4.10;;;3.25;;
9722;SDS011;4900;49.306;8.500;2023-07-08T10:44:19;5.68;;;3.13;;
9722;SDS011;4900;49.306;8.500;2023-07-08T10:46:58;5.18;;;3.58;;
9722;SDS011;4900;49.306;8.500;2023-07-08T10:57:32;3.53;;;3.20;;
9722;SDS011;4900;49.306;8.500;2023-07-08T11:03:10;3.70;;;3.08;;
9722;SDS011;4900;49.306;8.500;2023-07-08T11:06:22;4.80;;;3.00;;
9722;SDS011;4900;49.306;8.500;2023-07-08T11:08:55;5.32;;;3.30;;
9722;SDS011;4900;49.306;8.500;2023-07-08T11:14:10;5.30;;;3.53;;
9722;SDS011;4900;49.306;8.500;2023-07-08T11:16:45;4.47;;;3.33;;
9722;SDS011;4900;49.306;8.500;2023-07-08T11:19:26;5.05;;;3.17;;
9722;SDS011;4900;49.306;8.500;2023-07-08T11:22:08;3.95;;;3.20;;
9722;SDS011;4900;49.306;8.500;2023-07-08T11:29:50;4.63;;;3.70;;
9722;SDS011;4900;49.306;8.500;2023-07-08T11:32:21;4.18;;;3.45;;
9722;SDS011;4900;49.306;8.500;2023-07-08T11:34:49;4.32;;;3.80;;
9722;SDS011;4900;49.306;8.500;2023-07-08T11:37:17;4.53;;;3.20;;
9722;SDS011;4900;49.306;8.500;2023-07-08T11:39:46;4.38;;;3.47;;
9722;SDS011;4900;49.306;8.500;2023-07-08T11:42:51;3.92;;;3.53;;
9722;SDS011;4900;49.306;8.500;2023-07-08T11:47:49;3.72;;;3.33;;
9722;SDS011;4900;49.306;8.500;2023-07-08T11:50:22;5.63;;;3.50;;
9722;SDS011;4900;49.306;8.500;2023-07-08T11:52:53;4.50;;;3.53;;
9722;SDS011;4900;49.306;8.500;2023-07-08T11:55:21;4.05;;;3.20;;
9722;SDS011;4900;49.306;8.500;2023-07-08T11:57:53;7.45;;;3.42;;
9722;SDS011;4900;49.306;8.500;2023-07-08T12:00:23;5.30;;;3.67;;
9722;SDS011;4900;49.306;8.500;2023-07-08T12:07:57;5.05;;;3.50;;
9722;SDS011;4900;49.306;8.500;2023-07-08T12:10:28;5.03;;;3.38;;
9722;SDS011;4900;49.306;8.500;2023-07-08T12:13:03;4.22;;;3.33;;
9722;SDS011;4900;49.306;8.500;2023-07-08T12:15:37;4.75;;;3.35;;
9722;SDS011;4900;49.306;8.500;2023-07-08T12:18:16;4.85;;;3.50;;
9722;SDS011;4900;49.306;8.500;2023-07-08T12:20:59;5.88;;;3.17;;
9722;SDS011;4900;49.306;8.500;2023-07-08T12:23:26;4.97;;;3.45;;
9722;SDS011;4900;49.306;8.500;2023-07-08T12:25:52;3.80;;;3.40;;
9722;SDS011;4900;49.306;8.500;2023-07-08T12:28:20;4.07;;;3.33;;
9722;SDS011;4900;49.306;8.500;2023-07-08T12:30:46;4.57;;;3.20;;
9722;SDS011;4900;49.306;8.500;2023-07-08T12:33:14;3.90;;;3.50;;
9722;SDS011;4900;49.306;8.500;2023-07-08T12:35:47;5.57;;;3.30;;
9722;SDS011;4900;49.306;8.500;2023-07-08T12:41:00;4.05;;;3.30;;
9722;SDS011;4900;49.306;8.500;2023-07-08T12:43:27;5.32;;;3.22;;
9722;SDS011;4900;49.306;8.500;2023-07-08T12:45:52;4.93;;;3.20;;
9722;SDS011;4900;49.306;8.500;2023-07-08T12:48:18;4.22;;;3.30;;
9722;SDS011;4900;49.306;8.500;2023-07-08T12:50:43;3.83;;;3.35;;
9722;SDS011;4900;49.306;8.500;2023-07-08T12:53:12;3.75;;;3.30;;
9722;SDS011;4900;49.306;8.500;2023-07-08T12:55:41;5.25;;;3.50;;
9722;SDS011;4900;49.306;8.500;2023-07-08T12:58:12;3.92;;;3.40;;
9722;SDS011;4900;49.306;8.500;2023-07-08T13:00:41;4.63;;;3.30;;
9722;SDS011;4900;49.306;8.500;2023-07-08T13:03:08;5.28;;;3.33;;
9722;SDS011;4900;49.306;8.500;2023-07-08T13:05:42;4.10;;;3.60;;
9722;SDS011;4900;49.306;8.500;2023-07-08T13:08:15;5.07;;;3.17;;
9722;SDS011;4900;49.306;8.500;2023-07-08T13:10:43;4.50;;;3.47;;
9722;SDS011;4900;49.306;8.500;2023-07-08T13:13:53;4.07;;;3.60;;
9722;SDS011;4900;49.306;8.500;2023-07-08T13:16:03;6.30;;;3.55;;
9722;SDS011;4900;49.306;8.500;2023-07-08T13:18:33;3.97;;;3.30;;
9722;SDS011;4900;49.306;8.500;2023-07-08T13:21:01;4.93;;;3.30;;
9722;SDS011;4900;49.306;8.500;2023-07-08T13:23:28;3.83;;;3.42;;
9722;SDS011;4900;49.306;8.500;2023-07-08T13:25:54;5.65;;;3.65;;
9722;SDS011;4900;49.306;8.500;2023-07-08T13:28:24;4.57;;;3.30;;
9722;SDS011;4900;49.306;8.500;2023-07-08T13:31:18;3.65;;;3.25;;
9722;SDS011;4900;49.306;8.500;2023-07-08T13:33:48;3.20;;;2.90;;
9722;SDS011;4900;49.306;8.500;2023-07-08T13:36:16;4.40;;;3.30;;
9722;SDS011;4900;49.306;8.500;2023-07-08T13:38:43;3.58;;;3.10;;
9722;SDS011;4900;49.306;8.500;2023-07-08T13:41:10;3.67;;;3.25;;
9722;SDS011;4900;49.306;8.500;2023-07-08T13:43:38;3.50;;;3.17;;
9722;SDS011;4900;49.306;8.500;2023-07-08T13:46:06;5.00;;;3.00;;
9722;SDS011;4900;49.306;8.500;2023-07-08T13:48:51;3.85;;;3.30;;
9722;SDS011;4900;49.306;8.500;2023-07-08T13:51:18;3.67;;;3.33;;
9722;SDS011;4900;49.306;8.500;2023-07-08T13:53:50;4.57;;;3.15;;
9722;SDS011;4900;49.306;8.500;2023-07-08T13:58:52;5.05;;;3.17;;
9722;SDS011;4900;49.306;8.500;2023-07-08T14:01:25;4.60;;;3.40;;
9722;SDS011;4900;49.306;8.500;2023-07-08T14:03:51;4.50;;;3.17;;
9722;SDS011;4900;49.306;8.500;2023-07-08T14:06:23;5.32;;;3.30;;
9722;SDS011;4900;49.306;8.500;2023-07-08T14:08:54;3.50;;;2.80;;
9722;SDS011;4900;49.306;8.500;2023-07-08T14:11:21;3.53;;;3.03;;
9722;SDS011;4900;49.306;8.500;2023-07-08T14:13:47;3.38;;;2.70;;
9722;SDS011;4900;49.306;8.500;2023-07-08T14:18:49;3.33;;;3.00;;
9722;SDS011;4900;49.306;8.500;2023-07-08T14:21:15;3.67;;;2.65;;
9722;SDS011;4900;49.306;8.500;2023-07-08T14:23:41;3.22;;;2.72;;
9722;SDS011;4900;49.306;8.500;2023-07-08T14:26:10;3.33;;;2.90;;
9722;SDS011;4900;49.306;8.500;2023-07-08T14:28:35;3.35;;;2.60;;
9722;SDS011;4900;49.306;8.500;2023-07-08T14:31:01;2.50;;;2.30;;
9722;SDS011;4900;49.306;8.500;2023-07-08T14:33:26;2.72;;;2.53;;
9722;SDS011;4900;49.306;8.500;2023-07-08T14:35:52;3.17;;;2.60;;
9722;SDS011;4900;49.306;8.500;2023-07-08T14:38:17;2.55;;;2.30;;
9722;SDS011;4900;49.306;8.500;2023-07-08T14:40:43;3.65;;;2.60;;
9722;SDS011;4900;49.306;8.500;2023-07-08T14:43:27;3.40;;;2.50;;
9722;SDS011;4900;49.306;8.500;2023-07-08T14:45:55;4.35;;;2.63;;
9722;SDS011;4900;49.306;8.500;2023-07-08T14:48:23;2.92;;;2.60;;
9722;SDS011;4900;49.306;8.500;2023-07-08T14:50:50;3.08;;;2.53;;
9722;SDS011;4900;49.306;8.500;2023-07-08T14:53:16;2.50;;;2.30;;
9722;SDS011;4900;49.306;8.500;2023-07-08T14:55:44;3.03;;;2.72;;
9722;SDS011;4900;49.306;8.500;2023-07-08T15:00:49;2.60;;;2.35;;
9722;SDS011;4900;49.306;8.500;2023-07-08T15:03:16;3.42;;;3.10;;
9722;SDS011;4900;49.306;8.500;2023-07-08T15:05:41;3.80;;;2.75;;
9722;SDS011;4900;49.306;8.500;2023-07-08T15:08:07;3.95;;;3.55;;
9722;SDS011;4900;49.306;8.500;2023-07-08T15:10:33;3.50;;;2.70;;
9722;SDS011;4900;49.306;8.500;2023-07-08T15:13:01;3.55;;;2.70;;
9722;SDS011;4900;49.306;8.500;2023-07-08T15:15:31;4.53;;;2.65;;
9722;SDS011;4900;49.306;8.500;2023-07-08T15:17:58;3.25;;;2.95;;
9722;SDS011;4900;49.306;8.500;2023-07-08T15:20:24;3.35;;;2.92;;
9722;SDS011;4900;49.306;8.500;2023-07-08T15:22:50;4.03;;;3.50;;
9722;SDS011;4900;49.306;8.500;2023-07-08T15:25:16;4.30;;;3.10;;
9722;SDS011;4900;49.306;8.500;2023-07-08T15:27:43;3.85;;;3.20;;
9722;SDS011;4900;49.306;8.500;2023-07-08T15:30:19;4.20;;;2.90;;
9722;SDS011;4900;49.306;8.500;2023-07-08T15:32:46;3.40;;;2.83;;
9722;SDS011;4900;49.306;8.500;2023-07-08T15:35:12;4.28;;;3.03;;
9722;SDS011;4900;49.306;8.500;2023-07-08T15:37:43;4.07;;;3.10;;
9722;SDS011;4900;49.306;8.500;2023-07-08T15:40:09;4.80;;;3.17;;
9722;SDS011;4900;49.306;8.500;2023-07-08T15:42:38;5.03;;;3.13;;
9722;SDS011;4900;49.306;8.500;2023-07-08T15:45:17;3.70;;;2.95;;
9722;SDS011;4900;49.306;8.500;2023-07-08T15:47:51;3.40;;;2.95;;
9722;SDS011;4900;49.306;8.500;2023-07-08T15:50:18;3.83;;;2.60;;
9722;SDS011;4900;49.306;8.500;2023-07-08T15:52:44;4.63;;;2.97;;
9722;SDS011;4900;49.306;8.500;2023-07-08T15:55:11;4.93;;;3.20;;
9722;SDS011;4900;49.306;8.500;2023-07-08T15:57:43;3.58;;;2.80;;
9722;SDS011;4900;49.306;8.500;2023-07-08T16:00:18;3.15;;;2.83;;
9722;SDS011;4900;49.306;8.500;2023-07-08T16:02:47;3.30;;;3.00;;
9722;SDS011;4900;49.306;8.500;2023-07-08T16:05:15;4.35;;;3.10;;
9722;SDS011;4900;49.306;8.500;2023-07-08T16:07:40;3.78;;;2.90;;
9722;SDS011;4900;49.306;8.500;2023-07-08T16:10:06;4.55;;;2.67;;
9722;SDS011;4900;49.306;8.500;2023-07-08T16:12:33;2.58;;;2.38;;
9722;SDS011;4900;49.306;8.500;2023-07-08T16:14:58;3.38;;;2.45;;
9722;SDS011;4900;49.306;8.500;2023-07-08T16:17:23;2.95;;;2.75;;
9722;SDS011;4900;49.306;8.500;2023-07-08T16:19:49;2.85;;;2.40;;
9722;SDS011;4900;49.306;8.500;2023-07-08T16:22:14;3.22;;;2.70;;
9722;SDS011;4900;49.306;8.500;2023-07-08T16:24:39;3.95;;;2.70;;